sensor_id;sensor_type;location;lat;lon;timestamp;temperature;humidity
10692;DHT22;5396;50.950;6.988;2023-04-30T00:01:20;8.90;99.90
10692;DHT22;5396;50.950;6.988;2023-04-30T00:03:47;8.90;99.90
10692;DHT22;5396;50.950;6.988;2023-04-30T00:06:12;8.80;99.90
10692;DHT22;5396;50.950;6.988;2023-04-30T00:08:38;8.80;99.90
10692;DHT22;5396;50.950;6.988;2023-04-30T00:11:04;8.80;99.90
10692;DHT22;5396;50.950;6.988;2023-04-30T00:13:31;8.70;99.90
10692;DHT22;5396;50.950;6.988;2023-04-30T00:15:59;8.70;99.90
10692;DHT22;5396;50.950;6.988;2023-04-30T00:18:24;8.70;99.90
10692;DHT22;5396;50.950;6.988;2023-04-30T00:20:50;8.60;99.90
10692;DHT22;5396;50.950;6.988;2023-04-30T00:23:17;8.60;99.90
10692;DHT22;5396;50.950;6.988;2023-04-30T00:25:43;8.60;99.90
10692;DHT22;5396;50.950;6.988;2023-04-30T00:28:09;8.50;99.90
10692;DHT22;5396;50.950;6.988;2023-04-30T00:30:34;8.50;99.90
10692;DHT22;5396;50.950;6.988;2023-04-30T00:33:00;8.40;99.90
10692;DHT22;5396;50.950;6.988;2023-04-30T00:35:25;8.40;99.90
10692;DHT22;5396;50.950;6.988;2023-04-30T00:37:52;8.30;99.90
10692;DHT22;5396;50.950;6.988;2023-04-30T00:40:18;8.30;99.90
10692;DHT22;5396;50.950;6.988;2023-04-30T00:42:46;8.30;99.90
10692;DHT22;5396;50.950;6.988;2023-04-30T00:45:13;8.20;99.90
10692;DHT22;5396;50.950;6.988;2023-04-30T00:47:39;8.30;99.90
10692;DHT22;5396;50.950;6.988;2023-04-30T00:50:08;8.30;99.90
10692;DHT22;5396;50.950;6.988;2023-04-30T00:52:34;8.30;99.90
10692;DHT22;5396;50.950;6.988;2023-04-30T00:55:00;8.30;99.90
10692;DHT22;5396;50.950;6.988;2023-04-30T00:57:25;8.30;99.90
10692;DHT22;5396;50.950;6.988;2023-04-30T00:59:51;8.30;99.90
10692;DHT22;5396;50.950;6.988;2023-04-30T01:02:17;8.20;99.90
10692;DHT22;5396;50.950;6.988;2023-04-30T01:04:45;8.30;99.90
10692;DHT22;5396;50.950;6.988;2023-04-30T01:07:11;8.30;99.90
10692;DHT22;5396;50.950;6.988;2023-04-30T01:09:37;8.30;99.90
10692;DHT22;5396;50.950;6.988;2023-04-30T01:12:21;8.40;99.90
10692;DHT22;5396;50.950;6.988;2023-04-30T01:17:44;8.30;99.90
10692;DHT22;5396;50.950;6.988;2023-04-30T01:20:13;8.40;99.90
10692;DHT22;5396;50.950;6.988;2023-04-30T01:23:27;8.30;99.90
10692;DHT22;5396;50.950;6.988;2023-04-30T01:26:28;8.40;99.90
10692;DHT22;5396;50.950;6.988;2023-04-30T01:29:02;8.30;99.90
10692;DHT22;5396;50.950;6.988;2023-04-30T01:31:29;8.40;99.90
10692;DHT22;5396;50.950;6.988;2023-04-30T01:33:55;8.40;99.90
10692;DHT22;5396;50.950;6.988;2023-04-30T01:42:22;8.30;99.90
10692;DHT22;5396;50.950;6.988;2023-04-30T01:45:19;8.30;99.90
10692;DHT22;5396;50.950;6.988;2023-04-30T01:50:30;8.30;99.90
10692;DHT22;5396;50.950;6.988;2023-04-30T01:52:59;8.20;99.90
10692;DHT22;5396;50.950;6.988;2023-04-30T01:55:32;8.20;99.90
10692;DHT22;5396;50.950;6.988;2023-04-30T01:58:02;8.20;99.90
10692;DHT22;5396;50.950;6.988;2023-04-30T02:00:29;8.10;99.90
10692;DHT22;5396;50.950;6.988;2023-04-30T02:02:57;8.00;99.90
10692;DHT22;5396;50.950;6.988;2023-04-30T02:05:23;7.90;99.90
10692;DHT22;5396;50.950;6.988;2023-04-30T02:07:50;7.90;99.90
10692;DHT22;5396;50.950;6.988;2023-04-30T02:10:21;7.90;99.90
10692;DHT22;5396;50.950;6.988;2023-04-30T02:12:47;7.90;99.90
10692;DHT22;5396;50.950;6.988;2023-04-30T02:15:12;7.80;99.90
10692;DHT22;5396;50.950;6.988;2023-04-30T02:17:38;7.80;99.90
10692;DHT22;5396;50.950;6.988;2023-04-30T02:20:04;7.80;99.90
10692;DHT22;5396;50.950;6.988;2023-04-30T02:22:30;7.70;99.90
10692;DHT22;5396;50.950;6.988;2023-04-30T02:24:55;7.70;99.90
10692;DHT22;5396;50.950;6.988;2023-04-30T02:27:22;7.60;99.90
10692;DHT22;5396;50.950;6.988;2023-04-30T02:29:49;7.60;99.90
10692;DHT22;5396;50.950;6.988;2023-04-30T02:32:15;7.60;99.90
10692;DHT22;5396;50.950;6.988;2023-04-30T02:34:41;7.50;99.90
10692;DHT22;5396;50.950;6.988;2023-04-30T02:37:08;7.50;99.90
10692;DHT22;5396;50.950;6.988;2023-04-30T02:39:34;7.40;99.90
10692;DHT22;5396;50.950;6.988;2023-04-30T02:42:00;7.40;99.90
10692;DHT22;5396;50.950;6.988;2023-04-30T02:44:27;7.40;99.90
10692;DHT22;5396;50.950;6.988;2023-04-30T02:46:52;7.50;99.90
10692;DHT22;5396;50.950;6.988;2023-04-30T02:49:20;7.50;99.90
10692;DHT22;5396;50.950;6.988;2023-04-30T02:51:46;7.50;99.90
10692;DHT22;5396;50.950;6.988;2023-04-30T02:54:11;7.40;99.90
10692;DHT22;5396;50.950;6.988;2023-04-30T02:56:39;7.50;99.90
10692;DHT22;5396;50.950;6.988;2023-04-30T02:59:04;7.40;99.90
10692;DHT22;5396;50.950;6.988;2023-04-30T03:01:30;7.40;99.90
10692;DHT22;5396;50.950;6.988;2023-04-30T03:03:56;7.40;99.90
10692;DHT22;5396;50.950;6.988;2023-04-30T03:06:25;7.40;99.90
10692;DHT22;5396;50.950;6.988;2023-04-30T03:08:50;7.40;99.90
10692;DHT22;5396;50.950;6.988;2023-04-30T03:11:16;7.40;99.90
10692;DHT22;5396;50.950;6.988;2023-04-30T03:13:42;7.30;99.90
10692;DHT22;5396;50.950;6.988;2023-04-30T03:16:07;7.30;99.90
10692;DHT22;5396;50.950;6.988;2023-04-30T03:18:33;7.20;99.90
10692;DHT22;5396;50.950;6.988;2023-04-30T03:20:59;7.20;99.90
10692;DHT22;5396;50.950;6.988;2023-04-30T03:23:26;7.10;99.90
10692;DHT22;5396;50.950;6.988;2023-04-30T03:25:52;7.10;99.90
10692;DHT22;5396;50.950;6.988;2023-04-30T03:28:19;7.10;99.90
10692;DHT22;5396;50.950;6.988;2023-04-30T03:30:45;7.10;99.90
10692;DHT22;5396;50.950;6.988;2023-04-30T03:33:11;7.10;99.90
10692;DHT22;5396;50.950;6.988;2023-04-30T03:35:39;7.10;99.90
10692;DHT22;5396;50.950;6.988;2023-04-30T03:38:04;7.00;99.90
10692;DHT22;5396;50.950;6.988;2023-04-30T03:40:31;7.00;99.90
10692;DHT22;5396;50.950;6.988;2023-04-30T03:42:57;7.00;99.90
10692;DHT22;5396;50.950;6.988;2023-04-30T03:45:22;6.90;99.90
10692;DHT22;5396;50.950;6.988;2023-04-30T03:47:50;6.90;99.90
10692;DHT22;5396;50.950;6.988;2023-04-30T03:50:17;6.80;99.90
10692;DHT22;5396;50.950;6.988;2023-04-30T03:52:43;6.80;99.90
10692;DHT22;5396;50.950;6.988;2023-04-30T03:55:09;6.80;99.90
10692;DHT22;5396;50.950;6.988;2023-04-30T03:57:35;6.80;99.90
10692;DHT22;5396;50.950;6.988;2023-04-30T04:00:01;6.80;99.90
10692;DHT22;5396;50.950;6.988;2023-04-30T04:02:27;6.80;99.90
10692;DHT22;5396;50.950;6.988;2023-04-30T04:04:52;6.80;99.90
10692;DHT22;5396;50.950;6.988;2023-04-30T04:07:18;6.70;99.90
10692;DHT22;5396;50.950;6.988;2023-04-30T04:09:43;6.70;99.90
10692;DHT22;5396;50.950;6.988;2023-04-30T04:12:09;6.70;99.90
10692;DHT22;5396;50.950;6.988;2023-04-30T04:14:34;6.70;99.90
10692;DHT22;5396;50.950;6.988;2023-04-30T04:17:00;6.70;99.90
10692;DHT22;5396;50.950;6.988;2023-04-30T04:19:26;6.70;99.90
10692;DHT22;5396;50.950;6.988;2023-04-30T04:21:52;6.70;99.90
10692;DHT22;5396;50.950;6.988;2023-04-30T04:24:18;6.80;99.90
10692;DHT22;5396;50.950;6.988;2023-04-30T04:26:44;6.80;99.90
10692;DHT22;5396;50.950;6.988;2023-04-30T04:29:10;6.80;99.90
10692;DHT22;5396;50.950;6.988;2023-04-30T04:31:36;6.80;99.90
10692;DHT22;5396;50.950;6.988;2023-04-30T04:34:03;6.80;99.90
10692;DHT22;5396;50.950;6.988;2023-04-30T04:36:31;6.80;99.90
10692;DHT22;5396;50.950;6.988;2023-04-30T04:38:58;6.80;99.90
10692;DHT22;5396;50.950;6.988;2023-04-30T04:41:31;6.90;99.90
10692;DHT22;5396;50.950;6.988;2023-04-30T04:43:59;6.90;99.90
10692;DHT22;5396;50.950;6.988;2023-04-30T04:46:26;6.90;99.90
10692;DHT22;5396;50.950;6.988;2023-04-30T04:48:52;6.80;99.90
10692;DHT22;5396;50.950;6.988;2023-04-30T04:51:19;6.80;99.90
10692;DHT22;5396;50.950;6.988;2023-04-30T04:53:45;6.80;99.90
10692;DHT22;5396;50.950;6.988;2023-04-30T04:56:11;6.80;99.90
10692;DHT22;5396;50.950;6.988;2023-04-30T04:58:37;6.90;99.90
10692;DHT22;5396;50.950;6.988;2023-04-30T05:01:03;6.90;99.90
10692;DHT22;5396;50.950;6.988;2023-04-30T05:03:33;6.90;99.90
10692;DHT22;5396;50.950;6.988;2023-04-30T05:06:01;6.90;99.90
10692;DHT22;5396;50.950;6.988;2023-04-30T05:08:28;6.90;99.90
10692;DHT22;5396;50.950;6.988;2023-04-30T05:10:54;7.00;99.90
10692;DHT22;5396;50.950;6.988;2023-04-30T05:13:20;7.00;99.90
10692;DHT22;5396;50.950;6.988;2023-04-30T05:15:48;7.10;99.90
10692;DHT22;5396;50.950;6.988;2023-04-30T05:18:13;7.10;99.90
10692;DHT22;5396;50.950;6.988;2023-04-30T05:20:39;7.10;99.90
10692;DHT22;5396;50.950;6.988;2023-04-30T05:23:04;7.20;99.90
10692;DHT22;5396;50.950;6.988;2023-04-30T05:25:31;7.20;99.90
10692;DHT22;5396;50.950;6.988;2023-04-30T05:27:59;7.30;99.90
10692;DHT22;5396;50.950;6.988;2023-04-30T05:30:25;7.30;99.90
10692;DHT22;5396;50.950;6.988;2023-04-30T05:32:52;7.40;99.90
10692;DHT22;5396;50.950;6.988;2023-04-30T05:35:18;7.40;99.90
10692;DHT22;5396;50.950;6.988;2023-04-30T05:37:46;7.50;99.90
10692;DHT22;5396;50.950;6.988;2023-04-30T05:40:13;7.50;99.90
10692;DHT22;5396;50.950;6.988;2023-04-30T05:42:39;7.60;99.90
10692;DHT22;5396;50.950;6.988;2023-04-30T05:45:06;7.70;99.90
10692;DHT22;5396;50.950;6.988;2023-04-30T05:47:33;7.80;99.90
10692;DHT22;5396;50.950;6.988;2023-04-30T05:49:58;7.80;99.90
10692;DHT22;5396;50.950;6.988;2023-04-30T05:52:25;7.90;99.90
10692;DHT22;5396;50.950;6.988;2023-04-30T05:54:51;8.00;99.90
10692;DHT22;5396;50.950;6.988;2023-04-30T05:57:16;8.10;99.90
10692;DHT22;5396;50.950;6.988;2023-04-30T05:59:42;8.20;99.90
10692;DHT22;5396;50.950;6.988;2023-04-30T06:02:08;8.30;99.90
10692;DHT22;5396;50.950;6.988;2023-04-30T06:04:33;8.40;99.90
10692;DHT22;5396;50.950;6.988;2023-04-30T06:07:00;8.40;99.90
10692;DHT22;5396;50.950;6.988;2023-04-30T06:09:26;8.50;99.90
10692;DHT22;5396;50.950;6.988;2023-04-30T06:11:53;8.60;99.90
10692;DHT22;5396;50.950;6.988;2023-04-30T06:14:20;8.70;99.90
10692;DHT22;5396;50.950;6.988;2023-04-30T06:16:48;8.80;99.90
10692;DHT22;5396;50.950;6.988;2023-04-30T06:19:13;8.90;99.90
10692;DHT22;5396;50.950;6.988;2023-04-30T06:21:39;9.00;99.90
10692;DHT22;5396;50.950;6.988;2023-04-30T06:24:05;9.10;99.90
10692;DHT22;5396;50.950;6.988;2023-04-30T06:26:32;9.20;99.90
10692;DHT22;5396;50.950;6.988;2023-04-30T06:28:59;9.30;99.90
10692;DHT22;5396;50.950;6.988;2023-04-30T06:31:25;9.40;99.90
10692;DHT22;5396;50.950;6.988;2023-04-30T06:33:52;9.40;99.90
10692;DHT22;5396;50.950;6.988;2023-04-30T06:36:19;9.50;99.90
10692;DHT22;5396;50.950;6.988;2023-04-30T06:38:48;9.60;99.90
10692;DHT22;5396;50.950;6.988;2023-04-30T06:41:14;9.60;99.90
10692;DHT22;5396;50.950;6.988;2023-04-30T06:43:44;9.70;99.90
10692;DHT22;5396;50.950;6.988;2023-04-30T06:46:10;9.80;99.90
10692;DHT22;5396;50.950;6.988;2023-04-30T06:48:35;9.90;99.90
10692;DHT22;5396;50.950;6.988;2023-04-30T06:51:01;10.00;99.90
10692;DHT22;5396;50.950;6.988;2023-04-30T06:53:28;10.10;99.90
10692;DHT22;5396;50.950;6.988;2023-04-30T06:55:54;10.20;99.90
10692;DHT22;5396;50.950;6.988;2023-04-30T06:58:20;10.30;99.90
10692;DHT22;5396;50.950;6.988;2023-04-30T07:00:45;10.30;99.90
10692;DHT22;5396;50.950;6.988;2023-04-30T07:03:12;10.40;99.90
10692;DHT22;5396;50.950;6.988;2023-04-30T07:05:38;10.50;99.90
10692;DHT22;5396;50.950;6.988;2023-04-30T07:08:05;10.60;99.90
10692;DHT22;5396;50.950;6.988;2023-04-30T07:10:31;10.70;99.90
10692;DHT22;5396;50.950;6.988;2023-04-30T07:12:57;10.90;99.90
10692;DHT22;5396;50.950;6.988;2023-04-30T07:15:24;10.90;99.90
10692;DHT22;5396;50.950;6.988;2023-04-30T07:17:49;11.00;99.90
10692;DHT22;5396;50.950;6.988;2023-04-30T07:20:15;11.10;99.90
10692;DHT22;5396;50.950;6.988;2023-04-30T07:22:41;11.20;99.90
10692;DHT22;5396;50.950;6.988;2023-04-30T07:25:12;11.30;99.90
10692;DHT22;5396;50.950;6.988;2023-04-30T07:27:38;11.40;99.90
10692;DHT22;5396;50.950;6.988;2023-04-30T07:30:06;11.50;99.90
10692;DHT22;5396;50.950;6.988;2023-04-30T07:32:34;11.50;99.90
10692;DHT22;5396;50.950;6.988;2023-04-30T07:34:59;11.60;99.90
10692;DHT22;5396;50.950;6.988;2023-04-30T07:37:26;11.70;99.90
10692;DHT22;5396;50.950;6.988;2023-04-30T07:39:53;11.80;99.90
10692;DHT22;5396;50.950;6.988;2023-04-30T07:42:20;11.90;99.90
10692;DHT22;5396;50.950;6.988;2023-04-30T07:44:45;11.90;99.90
10692;DHT22;5396;50.950;6.988;2023-04-30T07:47:14;12.10;99.90
10692;DHT22;5396;50.950;6.988;2023-04-30T07:49:41;12.10;99.90
10692;DHT22;5396;50.950;6.988;2023-04-30T07:52:06;12.20;99.90
10692;DHT22;5396;50.950;6.988;2023-04-30T07:54:35;12.30;99.90
10692;DHT22;5396;50.950;6.988;2023-04-30T07:57:03;12.40;99.90
10692;DHT22;5396;50.950;6.988;2023-04-30T07:59:31;12.40;99.90
10692;DHT22;5396;50.950;6.988;2023-04-30T08:01:56;12.40;99.90
10692;DHT22;5396;50.950;6.988;2023-04-30T08:04:22;12.40;99.90
10692;DHT22;5396;50.950;6.988;2023-04-30T08:06:48;12.40;99.90
10692;DHT22;5396;50.950;6.988;2023-04-30T08:09:14;12.50;99.90
10692;DHT22;5396;50.950;6.988;2023-04-30T08:11:40;12.60;99.90
10692;DHT22;5396;50.950;6.988;2023-04-30T08:14:06;12.60;99.90
10692;DHT22;5396;50.950;6.988;2023-04-30T08:16:31;12.80;99.90
10692;DHT22;5396;50.950;6.988;2023-04-30T08:18:57;12.90;99.90
10692;DHT22;5396;50.950;6.988;2023-04-30T08:21:23;13.00;99.90
10692;DHT22;5396;50.950;6.988;2023-04-30T08:23:49;13.00;99.90
10692;DHT22;5396;50.950;6.988;2023-04-30T08:26:15;13.10;99.90
10692;DHT22;5396;50.950;6.988;2023-04-30T08:28:41;13.10;99.90
10692;DHT22;5396;50.950;6.988;2023-04-30T08:31:08;13.10;99.90
10692;DHT22;5396;50.950;6.988;2023-04-30T08:33:34;13.20;99.90
10692;DHT22;5396;50.950;6.988;2023-04-30T08:36:00;13.30;99.90
10692;DHT22;5396;50.950;6.988;2023-04-30T08:38:27;13.30;99.90
10692;DHT22;5396;50.950;6.988;2023-04-30T08:41:11;13.40;99.90
10692;DHT22;5396;50.950;6.988;2023-04-30T08:43:38;13.50;99.90
10692;DHT22;5396;50.950;6.988;2023-04-30T08:46:07;13.60;99.90
10692;DHT22;5396;50.950;6.988;2023-04-30T08:48:33;13.80;99.90
10692;DHT22;5396;50.950;6.988;2023-04-30T08:51:02;13.90;99.90
10692;DHT22;5396;50.950;6.988;2023-04-30T08:53:30;14.00;99.90
10692;DHT22;5396;50.950;6.988;2023-04-30T08:55:58;14.10;99.90
10692;DHT22;5396;50.950;6.988;2023-04-30T08:58:23;14.10;99.90
10692;DHT22;5396;50.950;6.988;2023-04-30T09:00:50;14.20;99.90
10692;DHT22;5396;50.950;6.988;2023-04-30T09:03:16;14.30;99.90
10692;DHT22;5396;50.950;6.988;2023-04-30T09:05:41;14.30;99.90
10692;DHT22;5396;50.950;6.988;2023-04-30T09:08:07;14.40;99.90
10692;DHT22;5396;50.950;6.988;2023-04-30T09:10:34;14.40;99.90
10692;DHT22;5396;50.950;6.988;2023-04-30T09:13:06;14.50;99.90
10692;DHT22;5396;50.950;6.988;2023-04-30T09:15:35;14.60;99.90
10692;DHT22;5396;50.950;6.988;2023-04-30T09:20:59;14.70;99.90
10692;DHT22;5396;50.950;6.988;2023-04-30T09:23:27;14.80;99.90
10692;DHT22;5396;50.950;6.988;2023-04-30T09:25:54;14.90;99.90
10692;DHT22;5396;50.950;6.988;2023-04-30T09:28:22;15.00;99.90
10692;DHT22;5396;50.950;6.988;2023-04-30T09:30:51;15.00;99.90
10692;DHT22;5396;50.950;6.988;2023-04-30T09:33:19;15.10;99.90
10692;DHT22;5396;50.950;6.988;2023-04-30T09:35:45;15.20;99.90
10692;DHT22;5396;50.950;6.988;2023-04-30T09:38:31;15.20;99.90
10692;DHT22;5396;50.950;6.988;2023-04-30T09:41:00;15.30;99.90
10692;DHT22;5396;50.950;6.988;2023-04-30T09:43:27;15.40;99.90
10692;DHT22;5396;50.950;6.988;2023-04-30T09:45:53;15.40;99.90
10692;DHT22;5396;50.950;6.988;2023-04-30T09:48:24;15.30;99.90
10692;DHT22;5396;50.950;6.988;2023-04-30T09:50:51;15.40;99.90
10692;DHT22;5396;50.950;6.988;2023-04-30T09:53:18;15.50;99.90
10692;DHT22;5396;50.950;6.988;2023-04-30T09:55:49;15.70;99.90
10692;DHT22;5396;50.950;6.988;2023-04-30T09:58:18;15.80;99.90
10692;DHT22;5396;50.950;6.988;2023-04-30T10:00:49;15.90;99.90
10692;DHT22;5396;50.950;6.988;2023-04-30T10:03:16;16.10;99.90
10692;DHT22;5396;50.950;6.988;2023-04-30T10:05:46;16.30;99.90
10692;DHT22;5396;50.950;6.988;2023-04-30T10:11:25;16.60;99.90
10692;DHT22;5396;50.950;6.988;2023-04-30T10:14:06;16.50;99.90
10692;DHT22;5396;50.950;6.988;2023-04-30T10:16:57;16.80;99.90
10692;DHT22;5396;50.950;6.988;2023-04-30T10:19:33;17.00;99.90
10692;DHT22;5396;50.950;6.988;2023-04-30T10:22:01;17.20;99.90
10692;DHT22;5396;50.950;6.988;2023-04-30T10:24:26;17.20;99.90
10692;DHT22;5396;50.950;6.988;2023-04-30T10:26:53;17.50;99.90
10692;DHT22;5396;50.950;6.988;2023-04-30T10:29:19;17.60;99.90
10692;DHT22;5396;50.950;6.988;2023-04-30T10:31:50;17.70;99.90
10692;DHT22;5396;50.950;6.988;2023-04-30T10:37:10;18.10;99.90
10692;DHT22;5396;50.950;6.988;2023-04-30T10:39:37;18.10;99.90
10692;DHT22;5396;50.950;6.988;2023-04-30T10:42:06;18.10;99.90
10692;DHT22;5396;50.950;6.988;2023-04-30T10:44:38;18.10;99.90
10692;DHT22;5396;50.950;6.988;2023-04-30T10:47:07;18.20;99.90
10692;DHT22;5396;50.950;6.988;2023-04-30T10:49:33;18.10;99.90
10692;DHT22;5396;50.950;6.988;2023-04-30T10:52:03;18.10;99.90
10692;DHT22;5396;50.950;6.988;2023-04-30T10:54:34;17.90;99.90
10692;DHT22;5396;50.950;6.988;2023-04-30T10:57:11;17.80;99.90
10692;DHT22;5396;50.950;6.988;2023-04-30T11:00:27;17.90;99.90
10692;DHT22;5396;50.950;6.988;2023-04-30T11:02:38;18.10;99.90
10692;DHT22;5396;50.950;6.988;2023-04-30T11:07:34;18.40;99.90
10692;DHT22;5396;50.950;6.988;2023-04-30T11:10:01;18.20;99.90
10692;DHT22;5396;50.950;6.988;2023-04-30T11:12:29;18.10;99.90
10692;DHT22;5396;50.950;6.988;2023-04-30T11:15:13;18.10;99.90
10692;DHT22;5396;50.950;6.988;2023-04-30T11:17:45;18.00;99.90
10692;DHT22;5396;50.950;6.988;2023-04-30T11:20:13;17.90;99.90
10692;DHT22;5396;50.950;6.988;2023-04-30T11:22:40;18.10;99.90
10692;DHT22;5396;50.950;6.988;2023-04-30T11:25:11;18.10;99.90
10692;DHT22;5396;50.950;6.988;2023-04-30T11:27:44;18.40;99.90
10692;DHT22;5396;50.950;6.988;2023-04-30T11:32:40;18.60;99.90
10692;DHT22;5396;50.950;6.988;2023-04-30T11:35:06;18.40;99.90
10692;DHT22;5396;50.950;6.988;2023-04-30T11:37:33;18.40;99.90
10692;DHT22;5396;50.950;6.988;2023-04-30T11:40:04;18.40;99.90
10692;DHT22;5396;50.950;6.988;2023-04-30T11:42:32;18.70;99.90
10692;DHT22;5396;50.950;6.988;2023-04-30T11:45:11;19.00;99.90
10692;DHT22;5396;50.950;6.988;2023-04-30T11:47:50;19.30;99.90
10692;DHT22;5396;50.950;6.988;2023-04-30T11:50:19;18.80;99.90
10692;DHT22;5396;50.950;6.988;2023-04-30T11:52:52;18.60;99.90
10692;DHT22;5396;50.950;6.988;2023-04-30T11:55:20;18.50;99.90
10692;DHT22;5396;50.950;6.988;2023-04-30T11:57:55;18.50;99.90
10692;DHT22;5396;50.950;6.988;2023-04-30T12:00:30;18.90;99.90
10692;DHT22;5396;50.950;6.988;2023-04-30T12:03:02;19.40;99.90
10692;DHT22;5396;50.950;6.988;2023-04-30T12:05:29;19.90;99.90
10692;DHT22;5396;50.950;6.988;2023-04-30T12:07:59;20.20;99.90
10692;DHT22;5396;50.950;6.988;2023-04-30T12:10:31;20.30;99.90
10692;DHT22;5396;50.950;6.988;2023-04-30T12:12:58;20.40;99.90
10692;DHT22;5396;50.950;6.988;2023-04-30T12:15:26;20.50;99.90
10692;DHT22;5396;50.950;6.988;2023-04-30T12:17:54;20.60;99.90
10692;DHT22;5396;50.950;6.988;2023-04-30T12:20:21;20.70;99.90
10692;DHT22;5396;50.950;6.988;2023-04-30T12:22:49;20.70;99.90
10692;DHT22;5396;50.950;6.988;2023-04-30T12:25:29;21.00;99.90
10692;DHT22;5396;50.950;6.988;2023-04-30T12:27:58;21.10;99.90
10692;DHT22;5396;50.950;6.988;2023-04-30T12:30:25;20.70;99.90
10692;DHT22;5396;50.950;6.988;2023-04-30T12:32:55;20.60;99.90
10692;DHT22;5396;50.950;6.988;2023-04-30T12:35:23;20.40;99.90
10692;DHT22;5396;50.950;6.988;2023-04-30T12:37:52;20.50;99.90
10692;DHT22;5396;50.950;6.988;2023-04-30T12:40:20;20.40;99.90
10692;DHT22;5396;50.950;6.988;2023-04-30T12:42:47;20.20;99.90
10692;DHT22;5396;50.950;6.988;2023-04-30T12:45:42;19.80;99.90
10692;DHT22;5396;50.950;6.988;2023-04-30T12:48:10;19.50;99.90
10692;DHT22;5396;50.950;6.988;2023-04-30T12:50:38;19.50;99.90
10692;DHT22;5396;50.950;6.988;2023-04-30T12:53:05;19.50;99.90
10692;DHT22;5396;50.950;6.988;2023-04-30T12:55:35;19.70;99.90
10692;DHT22;5396;50.950;6.988;2023-04-30T12:58:12;20.80;99.90
10692;DHT22;5396;50.950;6.988;2023-04-30T13:00:49;22.70;99.90
10692;DHT22;5396;50.950;6.988;2023-04-30T13:03:19;24.30;99.90
10692;DHT22;5396;50.950;6.988;2023-04-30T13:05:48;25.20;99.90
10692;DHT22;5396;50.950;6.988;2023-04-30T13:08:14;26.20;99.90
10692;DHT22;5396;50.950;6.988;2023-04-30T13:10:40;27.00;99.90
10692;DHT22;5396;50.950;6.988;2023-04-30T13:13:07;28.10;99.90
10692;DHT22;5396;50.950;6.988;2023-04-30T13:15:35;28.00;99.90
10692;DHT22;5396;50.950;6.988;2023-04-30T13:18:02;26.70;99.90
10692;DHT22;5396;50.950;6.988;2023-04-30T13:20:29;25.60;99.90
10692;DHT22;5396;50.950;6.988;2023-04-30T13:22:55;25.60;99.90
10692;DHT22;5396;50.950;6.988;2023-04-30T13:25:23;26.40;99.90
10692;DHT22;5396;50.950;6.988;2023-04-30T13:27:48;26.00;99.90
10692;DHT22;5396;50.950;6.988;2023-04-30T13:30:16;26.00;99.90
10692;DHT22;5396;50.950;6.988;2023-04-30T13:32:42;27.10;99.90
10692;DHT22;5396;50.950;6.988;2023-04-30T13:35:10;28.10;99.90
10692;DHT22;5396;50.950;6.988;2023-04-30T13:37:37;29.30;99.90
10692;DHT22;5396;50.950;6.988;2023-04-30T13:40:05;28.40;99.90
10692;DHT22;5396;50.950;6.988;2023-04-30T13:42:31;26.70;99.90
10692;DHT22;5396;50.950;6.988;2023-04-30T13:44:58;24.80;99.90
10692;DHT22;5396;50.950;6.988;2023-04-30T13:47:24;23.20;99.90
10692;DHT22;5396;50.950;6.988;2023-04-30T13:49:50;22.40;99.90
10692;DHT22;5396;50.950;6.988;2023-04-30T13:52:16;22.30;99.90
10692;DHT22;5396;50.950;6.988;2023-04-30T13:54:41;22.60;99.90
10692;DHT22;5396;50.950;6.988;2023-04-30T13:57:08;22.80;99.90
10692;DHT22;5396;50.950;6.988;2023-04-30T13:59:34;22.90;99.90
10692;DHT22;5396;50.950;6.988;2023-04-30T14:02:00;22.80;99.90
10692;DHT22;5396;50.950;6.988;2023-04-30T14:04:26;22.80;99.90
10692;DHT22;5396;50.950;6.988;2023-04-30T14:06:52;22.50;99.90
10692;DHT22;5396;50.950;6.988;2023-04-30T14:09:22;22.10;99.90
10692;DHT22;5396;50.950;6.988;2023-04-30T14:11:49;21.50;99.90
10692;DHT22;5396;50.950;6.988;2023-04-30T14:14:15;21.20;99.90
10692;DHT22;5396;50.950;6.988;2023-04-30T14:16:43;21.00;99.90
10692;DHT22;5396;50.950;6.988;2023-04-30T14:19:09;20.70;99.90
10692;DHT22;5396;50.950;6.988;2023-04-30T14:21:35;22.00;99.90
10692;DHT22;5396;50.950;6.988;2023-04-30T14:24:02;24.40;99.90
10692;DHT22;5396;50.950;6.988;2023-04-30T14:26:29;26.80;99.90
10692;DHT22;5396;50.950;6.988;2023-04-30T14:28:56;28.40;99.90
10692;DHT22;5396;50.950;6.988;2023-04-30T14:31:24;29.60;99.90
10692;DHT22;5396;50.950;6.988;2023-04-30T14:33:49;29.00;99.90
10692;DHT22;5396;50.950;6.988;2023-04-30T14:36:16;28.60;99.90
10692;DHT22;5396;50.950;6.988;2023-04-30T14:38:42;29.30;99.90
10692;DHT22;5396;50.950;6.988;2023-04-30T14:41:10;28.40;99.90
10692;DHT22;5396;50.950;6.988;2023-04-30T14:43:39;26.90;99.90
10692;DHT22;5396;50.950;6.988;2023-04-30T14:46:06;24.90;99.90
10692;DHT22;5396;50.950;6.988;2023-04-30T14:48:31;23.40;99.90
10692;DHT22;5396;50.950;6.988;2023-04-30T14:50:59;22.30;99.90
10692;DHT22;5396;50.950;6.988;2023-04-30T14:53:26;21.60;99.90
10692;DHT22;5396;50.950;6.988;2023-04-30T14:55:51;21.00;99.90
10692;DHT22;5396;50.950;6.988;2023-04-30T14:58:17;20.70;99.90
10692;DHT22;5396;50.950;6.988;2023-04-30T15:00:43;20.50;99.90
10692;DHT22;5396;50.950;6.988;2023-04-30T15:03:09;20.30;99.90
10692;DHT22;5396;50.950;6.988;2023-04-30T15:05:35;20.20;99.90
10692;DHT22;5396;50.950;6.988;2023-04-30T15:08:01;20.20;99.90
10692;DHT22;5396;50.950;6.988;2023-04-30T15:10:28;20.20;99.90
10692;DHT22;5396;50.950;6.988;2023-04-30T15:12:55;20.20;99.90
10692;DHT22;5396;50.950;6.988;2023-04-30T15:15:23;20.10;99.90
10692;DHT22;5396;50.950;6.988;2023-04-30T15:18:00;20.20;99.90
10692;DHT22;5396;50.950;6.988;2023-04-30T15:20:28;20.40;99.90
10692;DHT22;5396;50.950;6.988;2023-04-30T15:22:53;20.50;99.90
10692;DHT22;5396;50.950;6.988;2023-04-30T15:25:23;20.40;99.90
10692;DHT22;5396;50.950;6.988;2023-04-30T15:27:49;20.40;99.90
10692;DHT22;5396;50.950;6.988;2023-04-30T15:30:21;20.20;99.90
10692;DHT22;5396;50.950;6.988;2023-04-30T15:32:46;20.10;99.90
10692;DHT22;5396;50.950;6.988;2023-04-30T15:35:13;20.00;99.90
10692;DHT22;5396;50.950;6.988;2023-04-30T15:37:38;19.80;99.90
10692;DHT22;5396;50.950;6.988;2023-04-30T15:40:05;19.60;99.90
10692;DHT22;5396;50.950;6.988;2023-04-30T15:42:32;19.50;99.90
10692;DHT22;5396;50.950;6.988;2023-04-30T15:44:57;19.60;99.90
10692;DHT22;5396;50.950;6.988;2023-04-30T15:47:24;19.60;99.90
10692;DHT22;5396;50.950;6.988;2023-04-30T15:49:49;19.80;99.90
10692;DHT22;5396;50.950;6.988;2023-04-30T15:52:15;20.10;99.90
10692;DHT22;5396;50.950;6.988;2023-04-30T15:54:42;20.00;99.90
10692;DHT22;5396;50.950;6.988;2023-04-30T15:57:07;20.00;99.90
10692;DHT22;5396;50.950;6.988;2023-04-30T15:59:34;20.00;99.90
10692;DHT22;5396;50.950;6.988;2023-04-30T16:02:00;19.70;99.90
10692;DHT22;5396;50.950;6.988;2023-04-30T16:04:25;19.30;99.90
10692;DHT22;5396;50.950;6.988;2023-04-30T16:06:54;19.20;99.90
10692;DHT22;5396;50.950;6.988;2023-04-30T16:09:21;19.00;99.90
10692;DHT22;5396;50.950;6.988;2023-04-30T16:11:47;19.00;99.90
10692;DHT22;5396;50.950;6.988;2023-04-30T16:14:15;18.90;99.90
10692;DHT22;5396;50.950;6.988;2023-04-30T16:16:42;18.80;99.90
10692;DHT22;5396;50.950;6.988;2023-04-30T16:19:07;18.80;99.90
10692;DHT22;5396;50.950;6.988;2023-04-30T16:21:34;18.80;99.90